Time;durP1;ratioP1;P1;durP2;ratioP2;P2;SDS_P1;SDS_P2;PMS_P1;PMS_P2;Temp;Humidity;BMP_temperature;BMP_pressure;BME280_temperature;BME280_humidity;BME280_pressure;Samples;Min_cycle;Max_cycle;Signal;HPM_P1;HPM_P2
2022/04/23 00:02:15;;;;;;;;;;;20.80;40.80;;;;;;5148746;27;19928;-52
2022/04/23 00:04:43;;;;;;;;;;;20.80;40.80;;;;;;5125385;27;19927;-47
2022/04/23 00:07:10;;;;;;;;;;;20.80;40.80;;;;;;5119926;27;19954;-49
2022/04/23 00:09:37;;;;;;;;;;;20.80;40.80;;;;;;5129512;27;19968;-48
2022/04/23 00:12:05;;;;;;;;;;;20.80;40.80;;;;;;5147093;27;19928;-52
2022/04/23 00:14:33;;;;;;;;;;;20.80;40.80;;;;;;5120345;27;20335;-49
2022/04/23 00:17:01;;;;;;;;;;;20.80;40.80;;;;;;5143116;27;19935;-49
2022/04/23 00:19:27;;;;;;;;;;;20.80;40.80;;;;;;5143778;27;20319;-50
2022/04/23 00:21:54;;;;;;;;;;;20.80;40.80;;;;;;5140719;27;19972;-48
2022/04/23 00:24:21;;;;;;;;;;;20.80;40.80;;;;;;5128175;27;19940;-46
2022/04/23 00:26:47;;;;;;;;;;;20.80;40.80;;;;;;5124882;27;19927;-50
2022/04/23 00:29:17;;;;;;;;;;;20.80;40.80;;;;;;5121656;27;19970;-50
2022/04/23 00:31:44;;;;;;;;;;;20.80;40.90;;;;;;5132469;27;19923;-51
2022/04/23 00:34:10;;;;;;;;;;;20.80;40.80;;;;;;5120992;27;20006;-46
2022/04/23 00:36:38;;;;;;;;;;;20.80;40.80;;;;;;5127814;27;19919;-47
2022/04/23 00:39:05;;;;;;;;;;;20.80;40.90;;;;;;5126384;27;19919;-44
2022/04/23 00:41:47;;;;;;;;;;;20.80;40.90;;;;;;5124209;27;20376;-50
2022/04/23 00:44:15;;;;;;;;;;;20.80;40.90;;;;;;5125153;27;20158;-50
2022/04/23 00:46:42;;;;;;;;;;;20.80;40.90;;;;;;5117487;27;19927;-50
2022/04/23 00:49:09;;;;;;;;;;;20.80;40.90;;;;;;5121309;27;19931;-48
2022/04/23 00:51:36;;;;;;;;;;;20.80;40.90;;;;;;5123537;27;19923;-46
2022/04/23 00:54:05;;;;;;;;;;;20.80;40.90;;;;;;5121622;27;19923;-48
2022/04/23 00:56:32;;;;;;;;;;;20.80;40.90;;;;;;5139731;27;20033;-47
2022/04/23 00:58:58;;;;;;;;;;;20.80;40.90;;;;;;5122450;27;19920;-50
2022/04/23 01:01:29;;;;;;;;;;;20.80;40.90;;;;;;5122702;27;20006;-45
2022/04/23 01:03:57;;;;;;;;;;;20.80;40.90;;;;;;5119979;27;19919;-46
2022/04/23 01:06:24;;;;;;;;;;;20.80;40.90;;;;;;5127615;27;20253;-46
2022/04/23 01:08:51;;;;;;;;;;;20.80;40.90;;;;;;5143088;27;19919;-49
2022/04/23 01:11:18;;;;;;;;;;;20.80;40.90;;;;;;5126173;27;19919;-46
2022/04/23 01:13:45;;;;;;;;;;;20.80;40.90;;;;;;5146066;27;19919;-49
2022/04/23 01:16:12;;;;;;;;;;;20.80;40.90;;;;;;5120187;27;19920;-48
2022/04/23 01:18:42;;;;;;;;;;;20.80;40.90;;;;;;5138573;27;19919;-53
2022/04/23 01:21:13;;;;;;;;;;;20.80;40.90;;;;;;5126284;27;19926;-44
2022/04/23 01:23:40;;;;;;;;;;;20.80;40.90;;;;;;5117817;27;19923;-47
2022/04/23 01:26:08;;;;;;;;;;;20.80;40.90;;;;;;5141573;27;19925;-52
2022/04/23 01:28:35;;;;;;;;;;;20.80;40.90;;;;;;5144690;27;20450;-47
2022/04/23 01:31:03;;;;;;;;;;;20.80;40.90;;;;;;5118618;27;19999;-49
2022/04/23 01:33:30;;;;;;;;;;;20.80;40.90;;;;;;5126086;27;19986;-51
2022/04/23 01:35:57;;;;;;;;;;;20.80;40.90;;;;;;5121159;27;20050;-48
2022/04/23 01:38:25;;;;;;;;;;;20.80;40.90;;;;;;5119336;27;19923;-52
2022/04/23 01:40:52;;;;;;;;;;;20.80;40.90;;;;;;5129112;27;19966;-50
2022/04/23 01:43:19;;;;;;;;;;;20.80;40.90;;;;;;5124157;27;20017;-48
2022/04/23 01:45:45;;;;;;;;;;;20.80;40.90;;;;;;5134054;27;19927;-47
2022/04/23 01:48:12;;;;;;;;;;;20.80;40.90;;;;;;5118433;27;19923;-47
2022/04/23 01:50:39;;;;;;;;;;;20.80;40.90;;;;;;5128006;27;19927;-47
2022/04/23 01:53:06;;;;;;;;;;;20.80;40.90;;;;;;5124523;27;19919;-48
2022/04/23 01:55:34;;;;;;;;;;;20.80;40.90;;;;;;5139395;27;19919;-50
2022/04/23 01:58:01;;;;;;;;;;;20.80;40.90;;;;;;5140297;27;20279;-47
2022/04/23 02:00:28;;;;;;;;;;;20.80;40.90;;;;;;5122552;27;19920;-52
2022/04/23 02:02:57;;;;;;;;;;;20.80;40.90;;;;;;5125591;27;19929;-52
2022/04/23 02:05:24;;;;;;;;;;;20.80;41.40;;;;;;5143267;27;19958;-47
2022/04/23 02:07:51;;;;;;;;;;;20.80;40.90;;;;;;5138336;27;20038;-48
2022/04/23 02:10:17;;;;;;;;;;;20.80;40.90;;;;;;5134997;27;20256;-49
2022/04/23 02:12:46;;;;;;;;;;;20.80;40.80;;;;;;5120441;27;20368;-51
2022/04/23 02:15:14;;;;;;;;;;;20.80;40.80;;;;;;5127235;27;19919;-45
2022/04/23 02:17:41;;;;;;;;;;;20.80;40.90;;;;;;5122207;27;20359;-50
2022/04/23 02:20:08;;;;;;;;;;;20.80;40.80;;;;;;5122161;27;19929;-47
2022/04/23 02:22:35;;;;;;;;;;;20.80;40.80;;;;;;5120402;27;19927;-50
2022/04/23 02:25:02;;;;;;;;;;;20.80;40.80;;;;;;5114323;27;19930;-47
2022/04/23 02:27:28;;;;;;;;;;;20.80;40.80;;;;;;5142748;27;20287;-51
2022/04/23 02:29:57;;;;;;;;;;;20.80;40.80;;;;;;5120968;27;19925;-47
2022/04/23 02:32:24;;;;;;;;;;;20.80;40.80;;;;;;5124472;27;19934;-48
2022/04/23 02:34:51;;;;;;;;;;;20.80;41.40;;;;;;5122992;27;19983;-47
2022/04/23 02:37:17;;;;;;;;;;;20.80;40.80;;;;;;5127329;27;20001;-50
2022/04/23 02:39:44;;;;;;;;;;;20.80;40.80;;;;;;5117786;27;20360;-48
2022/04/23 02:42:12;;;;;;;;;;;20.80;40.80;;;;;;5138639;27;20287;-51
2022/04/23 02:44:40;;;;;;;;;;;20.80;40.70;;;;;;5118652;27;20558;-50
2022/04/23 02:47:09;;;;;;;;;;;20.80;40.80;;;;;;5120329;27;19923;-51
2022/04/23 02:49:36;;;;;;;;;;;20.80;40.80;;;;;;5116901;27;19946;-50
2022/04/23 02:52:03;;;;;;;;;;;20.80;40.80;;;;;;5122488;27;20371;-50
2022/04/23 02:54:30;;;;;;;;;;;20.80;40.70;;;;;;5120895;27;20007;-49
2022/04/23 02:57:00;;;;;;;;;;;20.80;41.30;;;;;;5120717;27;19919;-46
2022/04/23 02:59:27;;;;;;;;;;;20.80;40.70;;;;;;5122062;27;20553;-49
2022/04/23 03:01:53;;;;;;;;;;;20.80;40.70;;;;;;5122206;27;20026;-49
2022/04/23 03:04:21;;;;;;;;;;;20.80;40.70;;;;;;5117719;27;19919;-48
2022/04/23 03:06:48;;;;;;;;;;;20.80;40.70;;;;;;5119342;27;20496;-48
2022/04/23 03:09:15;;;;;;;;;;;20.80;40.70;;;;;;5119048;27;19932;-49
2022/04/23 03:11:42;;;;;;;;;;;20.80;40.70;;;;;;5116611;27;19934;-50
2022/04/23 03:14:08;;;;;;;;;;;20.80;40.70;;;;;;5116620;27;19924;-47
2022/04/23 03:16:35;;;;;;;;;;;20.80;40.70;;;;;;5120225;27;19923;-46
2022/04/23 03:19:02;;;;;;;;;;;20.80;40.70;;;;;;5139032;27;19920;-52
2022/04/23 03:21:31;;;;;;;;;;;20.80;40.70;;;;;;5140824;27;20002;-53
2022/04/23 03:23:57;;;;;;;;;;;20.80;40.80;;;;;;5119066;28;19968;-50
2022/04/23 03:26:24;;;;;;;;;;;20.80;40.70;;;;;;5119151;27;19919;-49
2022/04/23 03:28:50;;;;;;;;;;;20.80;40.70;;;;;;5121522;27;19959;-45
2022/04/23 03:31:17;;;;;;;;;;;20.80;40.70;;;;;;5124489;27;19919;-51
2022/04/23 03:33:44;;;;;;;;;;;20.80;40.70;;;;;;5122967;27;19926;-47
2022/04/23 03:36:11;;;;;;;;;;;20.70;40.60;;;;;;5126736;27;19919;-45
2022/04/23 03:38:43;;;;;;;;;;;20.80;40.70;;;;;;5132772;27;20322;-49
2022/04/23 03:41:10;;;;;;;;;;;20.80;40.70;;;;;;5123635;27;19964;-46
2022/04/23 03:43:37;;;;;;;;;;;20.80;40.70;;;;;;5121554;27;19931;-48
2022/04/23 03:46:06;;;;;;;;;;;20.80;40.60;;;;;;5136368;27;19919;-48
2022/04/23 03:48:33;;;;;;;;;;;20.80;40.60;;;;;;5116442;27;19984;-49
2022/04/23 03:51:00;;;;;;;;;;;20.80;40.70;;;;;;5117491;27;19947;-47
2022/04/23 03:53:27;;;;;;;;;;;20.70;40.60;;;;;;5121470;27;19923;-47
2022/04/23 03:55:55;;;;;;;;;;;20.80;40.60;;;;;;5139957;27;19923;-46
2022/04/23 03:58:22;;;;;;;;;;;20.80;40.60;;;;;;5121998;27;19923;-46
2022/04/23 04:00:49;;;;;;;;;;;20.80;40.70;;;;;;5138503;27;19930;-49
2022/04/23 04:03:16;;;;;;;;;;;20.80;40.60;;;;;;5117320;27;20018;-45
2022/04/23 04:05:42;;;;;;;;;;;20.80;40.60;;;;;;5113766;28;19924;-45
2022/04/23 04:08:12;;;;;;;;;;;20.80;40.60;;;;;;5122027;28;19949;-48
2022/04/23 04:10:38;;;;;;;;;;;20.70;40.60;;;;;;5121675;27;19923;-48
2022/04/23 04:13:07;;;;;;;;;;;20.70;40.60;;;;;;5135954;27;19926;-48
2022/04/23 04:15:34;;;;;;;;;;;20.70;40.60;;;;;;5117711;27;19919;-49
2022/04/23 04:18:01;;;;;;;;;;;20.70;40.50;;;;;;5122567;27;19920;-48
2022/04/23 04:20:29;;;;;;;;;;;20.70;40.50;;;;;;5122446;27;19969;-47
2022/04/23 04:22:56;;;;;;;;;;;20.70;40.50;;;;;;5120597;27;19927;-47
2022/04/23 04:25:23;;;;;;;;;;;20.70;40.60;;;;;;5142318;27;20018;-48
2022/04/23 04:27:50;;;;;;;;;;;20.70;40.50;;;;;;5120491;27;19919;-50
2022/04/23 04:30:18;;;;;;;;;;;20.70;40.50;;;;;;5120282;27;19927;-50
2022/04/23 04:32:45;;;;;;;;;;;20.70;40.50;;;;;;5140267;27;19963;-45
2022/04/23 04:35:12;;;;;;;;;;;20.70;40.50;;;;;;5119049;27;19919;-51
2022/04/23 04:37:39;;;;;;;;;;;20.70;40.60;;;;;;5117034;27;19923;-47
2022/04/23 04:40:06;;;;;;;;;;;20.70;40.60;;;;;;5120617;27;20430;-51
2022/04/23 04:42:33;;;;;;;;;;;20.70;40.50;;;;;;5128691;27;20005;-51
2022/04/23 04:45:00;;;;;;;;;;;20.70;40.50;;;;;;5127794;27;20385;-51
2022/04/23 04:47:37;;;;;;;;;;;20.70;40.50;;;;;;5122201;27;19926;-49
2022/04/23 04:50:04;;;;;;;;;;;20.70;40.50;;;;;;5122942;27;19930;-45
2022/04/23 04:52:31;;;;;;;;;;;20.70;40.50;;;;;;5141618;27;19983;-51
2022/04/23 04:54:58;;;;;;;;;;;20.70;40.50;;;;;;5122921;27;20050;-50
2022/04/23 04:57:24;;;;;;;;;;;20.70;40.50;;;;;;5125350;27;19923;-51
2022/04/23 04:59:51;;;;;;;;;;;20.70;40.50;;;;;;5141949;27;20124;-45
2022/04/23 05:02:20;;;;;;;;;;;20.70;40.40;;;;;;5119634;27;19920;-50
2022/04/23 05:04:48;;;;;;;;;;;20.70;40.40;;;;;;5120116;27;19920;-48
2022/04/23 05:07:14;;;;;;;;;;;20.70;40.40;;;;;;5127488;27;19999;-50
2022/04/23 05:09:41;;;;;;;;;;;20.70;40.50;;;;;;5129669;27;19926;-47
2022/04/23 05:12:08;;;;;;;;;;;20.70;40.40;;;;;;5121557;27;20394;-53
2022/04/23 05:14:35;;;;;;;;;;;20.70;40.40;;;;;;5142629;27;19944;-51
2022/04/23 05:17:02;;;;;;;;;;;20.70;40.40;;;;;;5127129;27;19983;-48
2022/04/23 05:19:28;;;;;;;;;;;20.70;40.40;;;;;;5138907;27;20005;-45
2022/04/23 05:21:57;;;;;;;;;;;20.70;40.40;;;;;;5122970;27;19958;-47
2022/04/23 05:24:24;;;;;;;;;;;20.70;41.00;;;;;;5120733;27;19923;-48
2022/04/23 05:26:50;;;;;;;;;;;20.70;40.40;;;;;;5137822;27;20008;-45
2022/04/23 05:29:17;;;;;;;;;;;20.70;40.40;;;;;;5124590;27;19942;-46
2022/04/23 05:31:44;;;;;;;;;;;20.70;40.40;;;;;;5122624;27;19945;-50
2022/04/23 05:34:10;;;;;;;;;;;20.70;40.40;;;;;;5142248;27;20429;-48
2022/04/23 05:36:37;;;;;;;;;;;20.70;40.40;;;;;;5144213;27;19919;-49
2022/04/23 05:39:05;;;;;;;;;;;20.70;40.40;;;;;;5141316;27;20321;-47
2022/04/23 05:41:42;;;;;;;;;;;20.70;40.30;;;;;;5144471;27;19930;-51
2022/04/23 05:44:09;;;;;;;;;;;20.70;40.30;;;;;;5121551;27;19977;-50
2022/04/23 05:46:36;;;;;;;;;;;20.70;40.30;;;;;;5121378;27;19919;-45
2022/04/23 05:49:07;;;;;;;;;;;20.70;40.40;;;;;;5120507;27;19931;-46
2022/04/23 05:51:34;;;;;;;;;;;20.70;40.30;;;;;;5138720;27;20007;-47
2022/04/23 05:54:00;;;;;;;;;;;20.70;40.30;;;;;;5118380;27;19927;-47
2022/04/23 05:56:29;;;;;;;;;;;20.70;40.40;;;;;;5117208;27;19920;-47
2022/04/23 05:58:55;;;;;;;;;;;20.70;40.30;;;;;;5123718;27;20444;-47
2022/04/23 06:01:22;;;;;;;;;;;20.70;40.30;;;;;;5119094;27;19931;-50
2022/04/23 06:03:52;;;;;;;;;;;20.70;40.30;;;;;;5115756;27;20269;-50
2022/04/23 06:06:22;;;;;;;;;;;20.70;40.30;;;;;;5116868;27;19919;-49
2022/04/23 06:08:49;;;;;;;;;;;20.70;40.40;;;;;;5119330;27;19923;-45
2022/04/23 06:11:16;;;;;;;;;;;20.70;40.30;;;;;;5128651;27;19926;-45
2022/04/23 06:13:44;;;;;;;;;;;20.70;40.30;;;;;;5126169;27;20345;-46
2022/04/23 06:16:11;;;;;;;;;;;20.70;40.30;;;;;;5122093;27;20014;-46
2022/04/23 06:18:38;;;;;;;;;;;20.70;40.40;;;;;;5140213;27;19919;-48
2022/04/23 06:21:04;;;;;;;;;;;20.70;40.30;;;;;;5117174;27;20082;-47
2022/04/23 06:23:31;;;;;;;;;;;20.70;40.30;;;;;;5117006;27;19959;-49
2022/04/23 06:25:58;;;;;;;;;;;20.70;40.30;;;;;;5123540;27;19919;-46
2022/04/23 06:28:25;;;;;;;;;;;20.70;40.30;;;;;;5118929;27;19949;-49
2022/04/23 06:30:53;;;;;;;;;;;20.70;40.30;;;;;;5121981;27;20034;-51
2022/04/23 06:33:20;;;;;;;;;;;20.70;40.30;;;;;;5120525;27;19935;-46
2022/04/23 06:35:47;;;;;;;;;;;20.70;40.30;;;;;;5123201;27;20363;-45
2022/04/23 06:38:13;;;;;;;;;;;20.70;40.30;;;;;;5119153;27;19964;-52
2022/04/23 06:40:40;;;;;;;;;;;20.70;40.30;;;;;;5119452;27;19919;-47
2022/04/23 06:43:17;;;;;;;;;;;20.70;40.30;;;;;;5138491;27;19934;-46
2022/04/23 06:45:44;;;;;;;;;;;20.70;40.30;;;;;;5143560;27;19991;-46
2022/04/23 06:48:13;;;;;;;;;;;20.70;40.40;;;;;;5138225;27;19920;-45
2022/04/23 06:50:40;;;;;;;;;;;20.70;40.30;;;;;;5118167;27;19926;-46
2022/04/23 06:53:07;;;;;;;;;;;20.70;40.30;;;;;;5123385;27;20018;-45
2022/04/23 06:55:34;;;;;;;;;;;20.70;40.30;;;;;;5115588;27;19920;-48
2022/04/23 06:58:01;;;;;;;;;;;20.70;40.30;;;;;;5114199;27;19984;-48
2022/04/23 07:00:28;;;;;;;;;;;20.70;40.30;;;;;;5113735;27;20318;-46
2022/04/23 07:02:54;;;;;;;;;;;20.70;40.30;;;;;;5115232;27;19919;-50
2022/04/23 07:05:22;;;;;;;;;;;20.70;40.30;;;;;;5137612;27;20248;-47
2022/04/23 07:07:57;;;;;;;;;;;20.70;40.30;;;;;;5116163;27;19958;-50
2022/04/23 07:10:24;;;;;;;;;;;20.70;40.30;;;;;;5120049;27;19927;-49
2022/04/23 07:12:53;;;;;;;;;;;20.70;40.30;;;;;;5119415;27;19930;-47
2022/04/23 07:15:19;;;;;;;;;;;20.70;40.20;;;;;;5122293;27;20318;-45
2022/04/23 07:17:46;;;;;;;;;;;20.70;40.20;;;;;;5119319;27;19937;-46
2022/04/23 07:20:16;;;;;;;;;;;20.70;40.20;;;;;;5118192;27;19934;-47
2022/04/23 07:24:03;;;;;;;;;;;20.70;40.30;;;;;;5118566;27;19931;-48
2022/04/23 07:25:34;;;;;;;;;;;20.70;40.80;;;;;;5111794;27;19927;-49
2022/04/23 07:28:03;;;;;;;;;;;20.70;40.30;;;;;;5116716;27;19923;-53
2022/04/23 07:30:30;;;;;;;;;;;20.70;40.30;;;;;;5121560;27;20018;-54
2022/04/23 07:32:57;;;;;;;;;;;20.70;40.20;;;;;;5143278;27;19927;-55
2022/04/23 07:38:13;;;;;;;;;;;20.70;40.00;;;;;;5118181;27;19980;-52
2022/04/23 07:40:40;;;;;;;;;;;20.70;39.80;;;;;;5120690;27;20031;-48
2022/04/23 07:43:11;;;;;;;;;;;20.70;40.30;;;;;;5118955;27;19947;-53
2022/04/23 07:45:38;;;;;;;;;;;20.70;39.50;;;;;;5116174;27;19958;-47
2022/04/23 07:48:11;;;;;;;;;;;20.70;39.60;;;;;;5112463;28;19927;-48
2022/04/23 07:50:43;;;;;;;;;;;20.70;39.60;;;;;;5131774;27;20265;-49
2022/04/23 07:53:11;;;;;;;;;;;20.70;39.50;;;;;;5130553;28;20379;-51
2022/04/23 07:55:40;;;;;;;;;;;20.60;40.00;;;;;;5145440;27;19919;-49
2022/04/23 07:58:09;;;;;;;;;;;20.60;39.40;;;;;;5135459;27;19964;-48
2022/04/23 08:00:36;;;;;;;;;;;20.60;39.40;;;;;;5137942;27;19922;-49
2022/04/23 08:03:03;;;;;;;;;;;20.60;39.40;;;;;;5141368;27;19919;-52
2022/04/23 08:05:30;;;;;;;;;;;20.60;39.30;;;;;;5125262;27;20374;-51
2022/04/23 08:07:57;;;;;;;;;;;20.60;39.20;;;;;;5122025;27;20010;-48
2022/04/23 08:10:24;;;;;;;;;;;20.60;39.20;;;;;;5124409;27;20429;-52
2022/04/23 08:12:54;;;;;;;;;;;20.50;39.10;;;;;;5126889;27;19929;-46
2022/04/23 08:15:20;;;;;;;;;;;20.50;39.10;;;;;;5120629;27;20014;-52
2022/04/23 08:17:47;;;;;;;;;;;20.50;39.30;;;;;;5126372;27;19919;-50
2022/04/23 08:20:14;;;;;;;;;;;20.50;39.10;;;;;;5117876;27;20357;-51
2022/04/23 08:22:42;;;;;;;;;;;20.50;39.10;;;;;;5122289;27;19977;-50
2022/04/23 08:25:09;;;;;;;;;;;20.50;39.30;;;;;;5126765;27;19919;-52
2022/04/23 08:27:47;;;;;;;;;;;20.50;39.50;;;;;;5127495;27;19930;-51
2022/04/23 08:33:01;;;;;;;;;;;20.60;39.70;;;;;;5126075;27;19930;-54
2022/04/23 08:35:28;;;;;;;;;;;20.60;39.70;;;;;;5148282;27;19959;-51
2022/04/23 08:37:54;;;;;;;;;;;20.60;39.60;;;;;;5118058;27;20356;-49
2022/04/23 08:40:21;;;;;;;;;;;20.60;39.70;;;;;;5120787;27;19983;-52
2022/04/23 08:42:48;;;;;;;;;;;20.60;39.70;;;;;;5139202;27;19979;-53
2022/04/23 08:45:16;;;;;;;;;;;20.60;39.70;;;;;;5124639;27;19926;-50
2022/04/23 08:47:45;;;;;;;;;;;20.60;39.70;;;;;;5136506;27;19994;-50
2022/04/23 08:50:11;;;;;;;;;;;20.60;39.70;;;;;;5141115;27;20010;-50
2022/04/23 08:52:38;;;;;;;;;;;20.60;39.70;;;;;;5157464;27;19984;-48
2022/04/23 08:55:06;;;;;;;;;;;20.60;39.70;;;;;;5144000;27;19923;-55
2022/04/23 08:57:33;;;;;;;;;;;20.60;39.70;;;;;;5123993;27;19935;-54
2022/04/23 09:00:00;;;;;;;;;;;20.60;39.70;;;;;;5144869;27;19920;-51
2022/04/23 09:02:29;;;;;;;;;;;20.60;39.70;;;;;;5146171;27;20002;-48
2022/04/23 09:04:56;;;;;;;;;;;20.60;39.70;;;;;;5123074;27;20040;-53
2022/04/23 09:07:23;;;;;;;;;;;20.60;39.70;;;;;;5117168;27;19927;-53
2022/04/23 09:09:52;;;;;;;;;;;20.60;39.70;;;;;;5131194;27;19927;-48
2022/04/23 09:12:19;;;;;;;;;;;20.60;39.70;;;;;;5119011;27;19926;-47
2022/04/23 09:14:46;;;;;;;;;;;20.60;39.80;;;;;;5119081;27;20256;-49
2022/04/23 09:25:42;;;;;;;;;;;20.60;39.70;;;;;;5121310;27;19931;-50
2022/04/23 09:28:18;;;;;;;;;;;20.60;39.70;;;;;;5117357;27;20479;-51
2022/04/23 09:30:46;;;;;;;;;;;20.60;39.70;;;;;;5117106;27;19988;-48
2022/04/23 09:33:13;;;;;;;;;;;20.60;39.70;;;;;;5124377;27;19919;-47
2022/04/23 09:35:57;;;;;;;;;;;20.60;39.70;;;;;;5130554;27;20066;-51
2022/04/23 09:38:24;;;;;;;;;;;20.60;39.80;;;;;;5119901;27;19920;-50
2022/04/23 09:40:52;;;;;;;;;;;20.60;39.80;;;;;;5136000;27;19920;-48
2022/04/23 09:43:24;;;;;;;;;;;20.60;39.80;;;;;;5128219;27;20378;-49
2022/04/23 09:45:59;;;;;;;;;;;20.60;39.80;;;;;;5118957;27;19919;-49
2022/04/23 09:48:26;;;;;;;;;;;20.60;39.70;;;;;;5120140;27;20014;-52
2022/04/23 09:50:54;;;;;;;;;;;20.60;39.80;;;;;;5119837;27;20320;-50
2022/04/23 09:53:25;;;;;;;;;;;20.60;39.70;;;;;;5116608;27;19970;-54
2022/04/23 09:55:58;;;;;;;;;;;20.60;39.70;;;;;;5119082;27;19919;-47
2022/04/23 09:58:26;;;;;;;;;;;20.60;39.70;;;;;;5116325;27;19965;-51
2022/04/23 10:00:52;;;;;;;;;;;20.60;39.70;;;;;;5120392;27;19926;-49
2022/04/23 10:03:19;;;;;;;;;;;20.60;39.80;;;;;;5127739;27;20015;-51
2022/04/23 10:05:46;;;;;;;;;;;20.60;39.70;;;;;;5130329;27;20013;-52
2022/04/23 10:08:14;;;;;;;;;;;20.60;39.70;;;;;;5154702;27;19932;-53
2022/04/23 10:10:44;;;;;;;;;;;20.60;39.70;;;;;;5131565;27;19920;-52
2022/04/23 10:13:12;;;;;;;;;;;20.60;39.80;;;;;;5141659;27;20026;-53
2022/04/23 10:15:39;;;;;;;;;;;20.60;39.70;;;;;;5117581;27;19939;-49
2022/04/23 10:18:06;;;;;;;;;;;20.60;39.70;;;;;;5117579;27;19926;-53
2022/04/23 10:20:35;;;;;;;;;;;20.60;39.70;;;;;;5124094;27;19931;-50
2022/04/23 10:23:05;;;;;;;;;;;20.60;39.70;;;;;;5116842;27;19962;-52
2022/04/23 10:25:34;;;;;;;;;;;20.60;39.70;;;;;;5117880;27;19923;-53
2022/04/23 10:28:03;;;;;;;;;;;20.60;39.70;;;;;;5136273;27;19920;-49
2022/04/23 10:30:31;;;;;;;;;;;20.60;39.70;;;;;;5131892;27;19980;-50
2022/04/23 10:32:59;;;;;;;;;;;20.60;39.70;;;;;;5128068;27;19923;-54
2022/04/23 10:35:32;;;;;;;;;;;20.60;39.70;;;;;;5119281;27;19949;-54
2022/04/23 10:38:00;;;;;;;;;;;20.60;39.70;;;;;;5116510;27;19953;-49
2022/04/23 10:40:26;;;;;;;;;;;20.60;39.70;;;;;;5119768;27;19919;-52
2022/04/23 10:43:12;;;;;;;;;;;20.60;39.70;;;;;;5136841;27;19926;-52
2022/04/23 10:45:40;;;;;;;;;;;20.60;39.70;;;;;;5135754;27;19940;-54
2022/04/23 10:48:22;;;;;;;;;;;20.60;39.70;;;;;;5149736;27;19929;-53
2022/04/23 10:50:58;;;;;;;;;;;20.60;39.70;;;;;;5099637;27;19919;-48
2022/04/23 10:53:30;;;;;;;;;;;20.60;39.70;;;;;;5105473;27;20465;-54
2022/04/23 10:56:06;;;;;;;;;;;20.60;39.70;;;;;;5120106;27;19923;-48
2022/04/23 10:58:34;;;;;;;;;;;20.60;39.60;;;;;;5116093;27;20308;-53
2022/04/23 11:01:15;;;;;;;;;;;20.60;39.70;;;;;;5115697;27;19923;-52
2022/04/23 11:03:43;;;;;;;;;;;20.60;39.70;;;;;;5122104;27;19934;-48
2022/04/23 11:14:46;;;;;;;;;;;20.60;39.60;;;;;;5127288;28;19923;-48
2022/04/23 11:17:12;;;;;;;;;;;20.60;39.60;;;;;;5118611;28;19919;-50
2022/04/23 11:19:39;;;;;;;;;;;20.60;39.60;;;;;;5142641;27;19961;-53
2022/04/23 11:22:09;;;;;;;;;;;20.60;39.60;;;;;;5135694;27;19964;-50
2022/04/23 11:24:35;;;;;;;;;;;20.60;39.60;;;;;;5127265;27;19931;-53
2022/04/23 11:27:03;;;;;;;;;;;20.60;39.60;;;;;;5128831;27;19920;-53
2022/04/23 11:29:29;;;;;;;;;;;20.60;39.60;;;;;;5137313;27;19943;-52
2022/04/23 11:31:58;;;;;;;;;;;20.60;39.60;;;;;;5116358;27;19962;-48
2022/04/23 11:34:26;;;;;;;;;;;20.60;39.60;;;;;;5121320;27;19920;-54
2022/04/23 11:36:53;;;;;;;;;;;20.60;39.60;;;;;;5121885;27;20386;-51
2022/04/23 11:39:20;;;;;;;;;;;20.60;39.60;;;;;;5139276;27;19996;-54
2022/04/23 11:41:48;;;;;;;;;;;20.60;39.60;;;;;;5127709;27;20034;-53
2022/04/23 11:44:19;;;;;;;;;;;20.60;39.60;;;;;;5127876;27;20435;-50
2022/04/23 11:46:47;;;;;;;;;;;20.60;39.60;;;;;;5133498;27;20282;-53
2022/04/23 11:49:29;;;;;;;;;;;20.60;39.60;;;;;;5120903;27;19920;-50
2022/04/23 11:52:02;;;;;;;;;;;20.60;39.60;;;;;;5122160;27;19931;-51
2022/04/23 11:54:33;;;;;;;;;;;20.60;39.60;;;;;;5150090;27;19924;-47
2022/04/23 11:57:00;;;;;;;;;;;20.60;39.60;;;;;;5128583;27;20417;-51
2022/04/23 11:59:34;;;;;;;;;;;20.60;39.60;;;;;;5127216;27;19972;-53
2022/04/23 12:02:01;;;;;;;;;;;20.60;39.60;;;;;;5120045;27;20403;-52
2022/04/23 12:04:32;;;;;;;;;;;20.60;39.60;;;;;;5126349;27;20363;-50
2022/04/23 12:07:00;;;;;;;;;;;20.60;39.60;;;;;;5157416;27;19954;-54
2022/04/23 12:09:27;;;;;;;;;;;20.60;39.60;;;;;;5143847;27;19920;-46
2022/04/23 12:11:58;;;;;;;;;;;20.60;39.60;;;;;;5148455;27;19923;-51
2022/04/23 12:14:25;;;;;;;;;;;20.60;39.60;;;;;;5136892;27;19920;-51
2022/04/23 12:16:52;;;;;;;;;;;20.60;39.50;;;;;;5127263;27;19920;-49
2022/04/23 12:19:20;;;;;;;;;;;20.60;39.50;;;;;;5118385;27;19938;-51
2022/04/23 12:21:58;;;;;;;;;;;20.60;39.50;;;;;;5145485;27;19919;-52
2022/04/23 12:24:32;;;;;;;;;;;20.60;39.50;;;;;;5118036;27;19980;-52
2022/04/23 12:27:01;;;;;;;;;;;20.60;39.50;;;;;;5119848;27;19930;-49
2022/04/23 12:40:46;;;;;;;;;;;20.60;39.50;;;;;;5139010;27;20562;-49
2022/04/23 12:43:22;;;;;;;;;;;20.60;39.50;;;;;;5124806;27;19919;-51
2022/04/23 12:45:55;;;;;;;;;;;20.60;39.50;;;;;;5143931;27;19923;-49
2022/04/23 12:48:22;;;;;;;;;;;20.60;39.50;;;;;;5118897;27;20071;-52
2022/04/23 12:50:50;;;;;;;;;;;20.60;39.50;;;;;;5131223;27;19920;-50
2022/04/23 12:53:34;;;;;;;;;;;20.60;39.50;;;;;;5134465;27;19919;-51
2022/04/23 12:56:04;;;;;;;;;;;20.60;39.50;;;;;;5129006;27;19923;-47
2022/04/23 12:58:31;;;;;;;;;;;20.60;39.50;;;;;;5123879;27;20236;-47
2022/04/23 13:00:58;;;;;;;;;;;20.60;39.50;;;;;;5128804;27;20587;-53
2022/04/23 13:03:32;;;;;;;;;;;20.60;39.50;;;;;;5123690;27;20556;-52
2022/04/23 13:05:58;;;;;;;;;;;20.60;39.50;;;;;;5155796;27;20251;-50
2022/04/23 13:11:27;;;;;;;;;;;20.60;39.50;;;;;;5128515;27;19919;-52
2022/04/23 13:13:54;;;;;;;;;;;20.60;39.50;;;;;;5140992;27;19920;-52
2022/04/23 13:16:22;;;;;;;;;;;20.60;39.50;;;;;;5119535;27;19934;-53
2022/04/23 13:18:48;;;;;;;;;;;20.60;39.40;;;;;;5144956;27;19971;-49
2022/04/23 13:21:15;;;;;;;;;;;20.60;39.50;;;;;;5106123;27;20305;-52
2022/04/23 13:23:42;;;;;;;;;;;20.60;39.40;;;;;;5148086;27;19919;-51
2022/04/23 13:26:09;;;;;;;;;;;20.60;39.50;;;;;;5137998;27;19923;-51
2022/04/23 13:28:37;;;;;;;;;;;20.60;39.50;;;;;;5137982;27;20017;-46
2022/04/23 13:31:04;;;;;;;;;;;20.60;39.50;;;;;;5137800;27;19931;-49
2022/04/23 13:33:31;;;;;;;;;;;20.60;39.40;;;;;;5121864;27;20235;-51
2022/04/23 13:35:57;;;;;;;;;;;20.60;39.40;;;;;;5138844;27;19930;-51
2022/04/23 13:38:24;;;;;;;;;;;20.60;39.40;;;;;;5124194;27;19919;-51
2022/04/23 13:40:51;;;;;;;;;;;20.60;39.40;;;;;;5123567;27;20022;-50
2022/04/23 13:43:18;;;;;;;;;;;20.60;39.40;;;;;;5116755;27;19961;-54
2022/04/23 13:45:46;;;;;;;;;;;20.60;39.40;;;;;;5129285;27;19926;-53
2022/04/23 13:48:13;;;;;;;;;;;20.60;39.40;;;;;;5120092;27;19927;-49
2022/04/23 13:50:42;;;;;;;;;;;20.60;39.40;;;;;;5129579;27;19923;-50
2022/04/23 13:53:08;;;;;;;;;;;20.60;39.40;;;;;;5129999;27;19970;-46
2022/04/23 13:55:35;;;;;;;;;;;20.60;39.40;;;;;;5135721;27;19927;-47
2022/04/23 13:58:02;;;;;;;;;;;20.60;39.40;;;;;;5127816;27;19942;-48
2022/04/23 14:00:29;;;;;;;;;;;20.60;39.40;;;;;;5147614;27;20364;-47
2022/04/23 14:11:12;;;;;;;;;;;20.60;39.40;;;;;;5135245;27;20279;-53
2022/04/23 14:13:39;;;;;;;;;;;20.60;39.40;;;;;;5117644;27;20471;-50
2022/04/23 14:16:06;;;;;;;;;;;20.60;39.40;;;;;;5118821;27;19919;-51
2022/04/23 14:18:35;;;;;;;;;;;20.60;39.40;;;;;;5149265;27;20379;-49
2022/04/23 14:21:01;;;;;;;;;;;20.60;39.40;;;;;;5122740;27;19923;-49
2022/04/23 14:23:28;;;;;;;;;;;20.60;39.40;;;;;;5116862;27;20023;-48
2022/04/23 14:25:55;;;;;;;;;;;20.60;39.40;;;;;;5134074;27;19949;-51
2022/04/23 14:28:22;;;;;;;;;;;20.60;39.40;;;;;;5135815;27;19959;-50
2022/04/23 14:30:50;;;;;;;;;;;20.60;39.40;;;;;;5120561;27;19919;-45
2022/04/23 14:33:17;;;;;;;;;;;20.60;39.30;;;;;;5123022;27;19924;-47
2022/04/23 14:35:46;;;;;;;;;;;20.60;39.40;;;;;;5142629;27;19920;-48
2022/04/23 14:38:13;;;;;;;;;;;20.60;39.40;;;;;;5114364;27;19920;-47
2022/04/23 14:40:39;;;;;;;;;;;20.60;39.40;;;;;;5121325;27;20089;-48
2022/04/23 14:43:08;;;;;;;;;;;20.60;39.40;;;;;;5121266;27;19927;-46
2022/04/23 14:45:37;;;;;;;;;;;20.60;39.40;;;;;;5126186;27;19919;-52
2022/04/23 14:48:05;;;;;;;;;;;20.60;39.30;;;;;;5131753;27;20260;-51
2022/04/23 14:53:10;;;;;;;;;;;20.60;39.30;;;;;;5117500;27;19927;-52
2022/04/23 14:53:20;;;;;;;;;;;20.60;39.40;;;;;;5124230;27;19962;-51
2022/04/23 14:55:47;;;;;;;;;;;20.60;39.40;;;;;;5115894;27;20566;-48
2022/04/23 14:58:15;;;;;;;;;;;20.60;39.40;;;;;;5129089;27;19972;-49
2022/04/23 15:00:42;;;;;;;;;;;20.60;39.30;;;;;;5121708;27;19938;-52
2022/04/23 15:03:08;;;;;;;;;;;20.60;39.40;;;;;;5125062;27;19919;-49
2022/04/23 15:05:35;;;;;;;;;;;20.60;39.30;;;;;;5122103;27;19925;-46
2022/04/23 15:08:03;;;;;;;;;;;20.60;39.40;;;;;;5132693;27;20366;-49